Time;durP1;ratioP1;P1;durP2;ratioP2;P2;SDS_P1;SDS_P2;PMS_P1;PMS_P2;Temp;Humidity;BMP_temperature;BMP_pressure;BME280_temperature;BME280_humidity;BME280_pressure;Samples;Min_cycle;Max_cycle;Signal;HPM_P1;HPM_P2
2022/01/04 00:00:21;;;;;;;;;;;8.40;99.90;;;;;;4930950;29;20143;-70
2022/01/04 00:02:47;;;;;;;1.08;0.73;;;8.30;99.90;;;;;;4929257;28;19973;-70
2022/01/04 00:05:12;;;;;;;;;;;8.40;99.90;;;;;;4930946;28;20055;-70
2022/01/04 00:07:38;;;;;;;1.20;1.00;;;8.30;99.90;;;;;;4930819;29;19921;-70
2022/01/04 00:10:05;;;;;;;;;;;8.30;99.90;;;;;;4931217;29;20035;-70
2022/01/04 00:15:14;;;;;;;4.68;1.17;;;8.30;99.90;;;;;;4930555;29;20082;-70
2022/01/04 00:17:40;;;;;;;;;;;8.30;99.90;;;;;;4929935;29;20032;-70
2022/01/04 00:20:06;;;;;;;3.33;1.02;;;8.20;99.90;;;;;;4929791;29;19914;-70
2022/01/04 00:22:32;;;;;;;2.92;1.10;;;8.20;99.90;;;;;;4929228;29;20036;-70
2022/01/04 00:24:58;;;;;;;;;;;8.20;99.90;;;;;;4931339;29;20036;-70
2022/01/04 00:27:23;;;;;;;1.55;0.82;;;8.30;99.90;;;;;;4929887;29;19920;-70
2022/01/04 00:29:49;;;;;;;;;;;8.30;99.90;;;;;;4930533;29;20050;-70
2022/01/04 00:32:15;;;;;;;1.20;1.00;;;8.30;99.90;;;;;;4928719;29;19918;-70
2022/01/04 00:34:41;;;;;;;3.25;1.55;;;8.30;99.90;;;;;;4930406;29;20012;-69
2022/01/04 00:37:07;;;;;;;3.45;1.42;;;8.30;99.90;;;;;;4929528;29;20670;-69
2022/01/04 00:39:33;;;;;;;;;;;8.30;99.90;;;;;;4928640;29;20034;-70
2022/01/04 00:41:59;;;;;;;3.00;1.10;;;8.30;99.90;;;;;;4930449;29;19911;-69
2022/01/04 00:44:25;;;;;;;2.38;1.45;;;8.30;99.90;;;;;;4929320;28;20457;-69
2022/01/04 00:46:51;;;;;;;;;;;8.20;99.90;;;;;;4929210;29;20106;-70
2022/01/04 00:49:17;;;;;;;2.17;1.77;;;8.20;99.90;;;;;;4930054;29;20426;-70
2022/01/04 00:51:47;;;;;;;3.30;0.95;;;8.20;99.90;;;;;;4931389;29;20058;-70
2022/01/04 00:54:13;;;;;;;2.60;1.67;;;8.20;99.90;;;;;;4930643;29;20395;-70
2022/01/04 00:56:40;;;;;;;2.58;1.40;;;8.10;99.90;;;;;;4929041;29;20039;-70
2022/01/04 00:59:07;;;;;;;2.97;1.67;;;8.10;99.90;;;;;;4930224;29;20059;-70
2022/01/04 01:01:33;;;;;;;2.83;1.73;;;8.10;99.90;;;;;;4927456;29;20050;-70
2022/01/04 01:03:59;;;;;;;1.65;1.35;;;8.10;99.90;;;;;;4928177;29;20160;-70
2022/01/04 01:06:24;;;;;;;;;;;8.10;99.90;;;;;;4930366;29;20501;-70
2022/01/04 01:08:50;;;;;;;3.72;1.70;;;8.10;99.90;;;;;;4930637;29;19917;-70
2022/01/04 01:11:15;;;;;;;;;;;8.10;99.90;;;;;;4930451;29;20028;-70
2022/01/04 01:13:41;;;;;;;5.07;1.25;;;8.00;99.90;;;;;;4929977;29;19907;-70
2022/01/04 01:16:06;;;;;;;5.53;1.98;;;8.00;99.90;;;;;;4928269;29;20060;-70
2022/01/04 01:18:33;;;;;;;4.05;2.03;;;8.00;99.90;;;;;;4929238;28;20082;-70
2022/01/04 01:20:59;;;;;;;4.47;1.95;;;8.00;99.90;;;;;;4929565;29;20062;-70
2022/01/04 01:23:25;;;;;;;2.72;1.77;;;8.00;99.90;;;;;;4930402;29;20047;-70
2022/01/04 01:25:51;;;;;;;;;;;8.10;99.90;;;;;;4928478;28;20055;-70
2022/01/04 01:28:17;;;;;;;5.93;2.20;;;8.10;99.90;;;;;;4929018;29;19957;-70
2022/01/04 01:30:43;;;;;;;;;;;8.10;99.90;;;;;;4929208;29;20074;-70
2022/01/04 01:33:10;;;;;;;3.83;1.67;;;8.20;99.90;;;;;;4928200;28;20009;-70
2022/01/04 01:35:39;;;;;;;3.55;1.20;;;8.10;99.90;;;;;;4928988;29;20060;-70
2022/01/04 01:38:05;;;;;;;4.82;1.60;;;8.10;99.90;;;;;;4928437;29;20031;-70
2022/01/04 01:40:32;;;;;;;4.68;1.45;;;8.10;99.90;;;;;;4925815;29;20063;-70
2022/01/04 01:42:57;;;;;;;2.55;1.63;;;8.10;99.90;;;;;;4929525;29;20039;-70
2022/01/04 01:45:23;;;;;;;;;;;8.10;99.90;;;;;;4928261;29;20709;-70
2022/01/04 01:47:50;;;;;;;4.43;1.00;;;8.00;99.90;;;;;;4929523;29;19918;-70
2022/01/04 01:50:16;;;;;;;4.45;1.85;;;8.00;99.90;;;;;;4927079;29;20039;-70
2022/01/04 01:52:45;;;;;;;5.07;1.63;;;8.00;99.90;;;;;;4929963;29;20042;-70
2022/01/04 01:55:10;;;;;;;2.47;1.75;;;8.00;99.90;;;;;;4925502;29;20181;-70
2022/01/04 01:57:36;;;;;;;;;;;7.90;99.90;;;;;;4929913;29;20685;-70
2022/01/04 02:00:03;;;;;;;5.25;2.75;;;7.90;99.90;;;;;;4928363;28;20282;-70
2022/01/04 02:02:29;;;;;;;3.60;2.05;;;7.90;99.90;;;;;;4928041;29;20114;-70
2022/01/04 02:04:55;;;;;;;;;;;7.90;99.90;;;;;;4924589;29;20139;-70
2022/01/04 02:07:21;;;;;;;7.90;2.10;;;7.90;99.90;;;;;;4926854;29;19922;-70
2022/01/04 02:09:56;;;;;;;2.70;1.70;;;7.90;99.90;;;;;;4927975;29;20111;-70
2022/01/04 02:12:22;;;;;;;7.13;1.75;;;7.80;99.90;;;;;;4926918;28;20027;-69
2022/01/04 02:14:50;;;;;;;;;;;7.90;99.90;;;;;;4931023;29;20031;-70
2022/01/04 02:17:16;;;;;;;5.20;1.60;;;7.80;99.90;;;;;;4931373;29;19915;-69
2022/01/04 02:19:42;;;;;;;;;;;7.80;99.90;;;;;;4933068;28;20050;-69
2022/01/04 02:22:07;;;;;;;2.38;1.55;;;7.80;99.90;;;;;;4929881;29;20406;-69
2022/01/04 02:24:33;;;;;;;;;;;7.80;99.90;;;;;;4931509;29;20115;-69
2022/01/04 02:26:59;;;;;;;2.75;1.35;;;7.80;99.90;;;;;;4930964;28;19974;-69
2022/01/04 02:29:26;;;;;;;1.95;1.63;;;7.80;99.90;;;;;;4932413;29;20023;-69
2022/01/04 02:31:52;;;;;;;2.85;1.83;;;7.90;99.90;;;;;;4929084;29;20027;-69
2022/01/04 02:34:18;;;;;;;;;;;7.80;99.90;;;;;;4934259;29;20125;-70
2022/01/04 02:36:44;;;;;;;5.32;1.10;;;7.90;99.90;;;;;;4929824;29;19965;-69
2022/01/04 02:39:09;;;;;;;;;;;7.90;99.90;;;;;;4932002;28;20032;-69
2022/01/04 02:41:35;;;;;;;6.65;1.75;;;7.90;99.90;;;;;;4930676;29;20013;-69
2022/01/04 02:44:00;;;;;;;2.80;1.73;;;8.00;99.90;;;;;;4932808;29;20472;-70
2022/01/04 02:46:26;;;;;;;5.35;1.48;;;8.00;99.90;;;;;;4930374;29;20163;-69
2022/01/04 02:48:51;;;;;;;;;;;8.00;99.90;;;;;;4930699;29;20558;-70
2022/01/04 02:51:18;;;;;;;2.90;1.42;;;8.00;99.90;;;;;;4932057;29;19938;-69
2022/01/04 02:53:45;;;;;;;6.05;1.83;;;8.10;99.90;;;;;;4929086;29;20035;-69
2022/01/04 02:56:14;;;;;;;5.35;2.30;;;8.10;99.90;;;;;;4931977;29;20036;-69
2022/01/04 02:58:39;;;;;;;3.15;1.13;;;8.10;99.90;;;;;;4933047;29;20036;-69
2022/01/04 03:01:05;;;;;;;;;;;8.10;99.90;;;;;;4932425;28;20046;-69
2022/01/04 03:03:31;;;;;;;5.78;1.60;;;8.10;99.90;;;;;;4930250;28;19915;-69
2022/01/04 03:05:57;;;;;;;2.75;1.55;;;8.10;99.90;;;;;;4929682;29;20404;-69
2022/01/04 03:08:23;;;;;;;;;;;8.20;99.90;;;;;;4929376;28;21445;-67
2022/01/04 03:10:49;;;;;;;4.88;1.77;;;8.10;99.90;;;;;;4957581;23;19922;-76
2022/01/04 03:13:16;;;;;;;;;;;8.10;99.90;;;;;;4945699;28;20661;-75
2022/01/04 03:15:44;;;;;;;;;;;8.20;99.90;;;;;;4946402;28;20004;-77
2022/01/04 03:18:10;;;;;;;5.22;1.20;;;8.20;99.90;;;;;;4945028;28;19914;-77
2022/01/04 03:20:35;;;;;;;;;;;8.20;99.90;;;;;;4945149;28;20476;-76
2022/01/04 03:23:02;;;;;;;2.58;1.58;;;8.30;99.90;;;;;;4943887;29;19915;-76
2022/01/04 03:25:28;;;;;;;4.82;3.08;;;8.20;99.90;;;;;;4943537;28;20038;-75
2022/01/04 03:27:53;;;;;;;;;;;8.30;99.90;;;;;;4943868;28;20031;-76
2022/01/04 03:30:19;;;;;;;3.72;2.78;;;8.30;99.90;;;;;;4944988;29;19941;-77
2022/01/04 03:32:45;;;;;;;;;;;8.30;99.90;;;;;;4944400;28;20062;-76
2022/01/04 03:35:10;;;;;;;6.05;2.58;;;8.30;99.90;;;;;;4944395;29;19929;-77
2022/01/04 03:37:36;;;;;;;5.78;2.55;;;8.30;99.90;;;;;;4944081;29;20067;-76
2022/01/04 03:40:03;;;;;;;;;;;8.20;99.90;;;;;;4944653;28;20049;-76
2022/01/04 03:42:28;;;;;;;13.77;7.50;;;8.20;99.90;;;;;;4944446;29;20299;-76
2022/01/04 03:44:54;;;;;;;9.10;5.60;;;8.20;99.90;;;;;;4943699;29;20042;-77
2022/01/04 03:47:19;;;;;;;11.73;5.22;;;8.10;99.90;;;;;;4944258;29;20023;-76
2022/01/04 03:49:45;;;;;;;;;;;8.10;99.90;;;;;;4944600;28;20039;-77
2022/01/04 03:52:11;;;;;;;8.48;4.70;;;8.10;99.90;;;;;;4943588;29;19910;-76
2022/01/04 03:54:36;;;;;;;;;;;8.10;99.90;;;;;;4944358;29;20089;-77
2022/01/04 03:57:02;;;;;;;5.40;2.55;;;8.00;99.90;;;;;;4943047;29;19965;-76
2022/01/04 03:59:27;;;;;;;;;;;8.00;99.90;;;;;;4944244;28;20035;-77
2022/01/04 04:01:52;;;;;;;6.57;3.08;;;8.00;99.90;;;;;;4944272;29;20001;-76
2022/01/04 04:04:19;;;;;;;;;;;8.00;99.90;;;;;;4944608;28;20066;-76
2022/01/04 04:06:45;;;;;;;3.75;1.83;;;8.10;99.90;;;;;;4942626;29;19918;-76
2022/01/04 04:09:11;;;;;;;5.45;2.72;;;8.10;99.90;;;;;;4944062;28;20058;-76
2022/01/04 04:11:36;;;;;;;;;;;8.10;99.90;;;;;;4943207;29;20897;-77
2022/01/04 04:14:02;;;;;;;11.57;3.47;;;8.20;99.90;;;;;;4942958;28;20012;-76
2022/01/04 04:16:27;;;;;;;;;;;8.20;99.90;;;;;;4943414;28;20077;-76
2022/01/04 04:18:53;;;;;;;1.63;1.13;;;8.20;99.90;;;;;;4943717;29;20074;-76
2022/01/04 04:21:18;;;;;;;;;;;8.10;99.90;;;;;;4943373;29;20115;-76
2022/01/04 04:23:44;;;;;;;4.35;2.20;;;8.10;99.90;;;;;;4943119;29;19911;-76
2022/01/04 04:26:09;;;;;;;;;;;8.10;99.90;;;;;;4943620;29;20035;-76
2022/01/04 04:28:34;;;;;;;2.83;2.13;;;8.10;99.90;;;;;;4942713;28;19980;-76
2022/01/04 04:31:03;;;;;;;3.25;1.73;;;8.10;99.90;;;;;;4943758;29;20035;-76
2022/01/04 04:33:29;;;;;;;5.25;1.98;;;8.00;99.90;;;;;;4942944;28;20404;-77
2022/01/04 04:35:55;;;;;;;;;;;8.00;99.90;;;;;;4944853;28;20512;-76
2022/01/04 04:38:20;;;;;;;6.38;2.83;;;8.00;99.90;;;;;;4942943;29;20427;-76
2022/01/04 04:40:46;;;;;;;;;;;8.00;99.90;;;;;;4942670;29;20126;-76
2022/01/04 04:43:12;;;;;;;2.90;1.75;;;8.00;99.90;;;;;;4943941;29;20053;-77
2022/01/04 04:45:37;;;;;;;;;;;8.00;99.90;;;;;;4943469;28;20023;-76
2022/01/04 04:48:03;;;;;;;2.80;1.70;;;8.00;99.90;;;;;;4942164;29;20139;-77
2022/01/04 04:50:29;;;;;;;;;;;8.00;99.90;;;;;;4942656;28;20035;-76
2022/01/04 04:52:55;;;;;;;1.90;1.20;;;7.90;99.90;;;;;;4944254;28;19914;-76
2022/01/04 04:55:20;;;;;;;;;;;7.90;99.90;;;;;;4943072;29;20038;-76
2022/01/04 04:57:46;;;;;;;2.78;1.90;;;7.90;99.90;;;;;;4943016;29;20355;-76
2022/01/04 05:00:11;;;;;;;;;;;7.90;99.90;;;;;;4943047;29;20027;-76
2022/01/04 05:02:38;;;;;;;2.97;1.17;;;7.90;99.90;;;;;;4942547;28;20374;-76
2022/01/04 05:05:04;;;;;;;3.33;1.77;;;7.90;99.90;;;;;;4941453;28;20116;-76
2022/01/04 05:07:29;;;;;;;3.60;1.40;;;7.90;99.90;;;;;;4942623;29;20024;-76
2022/01/04 05:09:55;;;;;;;;;;;7.90;99.90;;;;;;4942706;29;20046;-76
2022/01/04 05:12:20;;;;;;;1.15;0.93;;;7.90;99.90;;;;;;4942834;28;19910;-77
2022/01/04 05:14:46;;;;;;;;;;;7.90;99.90;;;;;;4943725;29;20032;-77
2022/01/04 05:17:15;;;;;;;4.78;1.02;;;7.90;99.90;;;;;;4942531;28;19937;-77
2022/01/04 05:19:41;;;;;;;2.47;1.35;;;7.90;99.90;;;;;;4941330;29;20059;-77
2022/01/04 05:22:07;;;;;;;;;;;7.90;99.90;;;;;;4943046;29;20118;-76
2022/01/04 05:24:32;;;;;;;2.97;1.05;;;7.90;99.90;;;;;;4942764;28;19913;-84
2022/01/04 05:26:58;;;;;;;;;;;7.90;99.90;;;;;;4943909;28;20083;-85
2022/01/04 05:29:24;;;;;;;4.65;2.60;;;7.90;99.90;;;;;;4942657;28;19915;-84
2022/01/04 05:31:49;;;;;;;;;;;7.90;99.90;;;;;;4944989;29;20032;-84
2022/01/04 05:34:15;;;;;;;3.03;1.02;;;7.90;99.90;;;;;;4943435;29;19917;-80
2022/01/04 05:36:40;;;;;;;;;;;7.90;99.90;;;;;;4944642;28;20028;-78
2022/01/04 05:39:06;;;;;;;2.83;1.35;;;7.90;99.90;;;;;;4942472;29;20632;-78
2022/01/04 05:41:31;;;;;;;2.63;1.63;;;7.90;99.90;;;;;;4943738;29;20055;-78
2022/01/04 05:43:57;;;;;;;1.77;1.10;;;7.90;99.90;;;;;;4942021;29;20091;-77
2022/01/04 05:46:22;;;;;;;2.80;1.20;;;7.90;99.90;;;;;;4942908;29;20481;-77
2022/01/04 05:48:48;;;;;;;1.38;0.85;;;7.90;99.90;;;;;;4942468;28;20058;-77
2022/01/04 05:51:13;;;;;;;5.15;0.82;;;7.90;99.90;;;;;;4946769;28;20396;-77
2022/01/04 05:53:39;;;;;;;;;;;7.90;99.90;;;;;;4945961;29;20122;-78
2022/01/04 05:56:04;;;;;;;2.22;1.08;;;7.90;99.90;;;;;;4946957;29;19958;-78
2022/01/04 05:58:30;;;;;;;;;;;7.90;99.90;;;;;;4946679;29;20034;-78
2022/01/04 06:00:55;;;;;;;2.67;1.05;;;7.90;99.90;;;;;;4947008;29;19917;-79
2022/01/04 06:03:21;;;;;;;;;;;7.90;99.90;;;;;;4947052;29;20031;-83
2022/01/04 06:05:46;;;;;;;2.20;1.10;;;7.90;99.90;;;;;;4945337;29;19914;-80
2022/01/04 06:08:12;;;;;;;;;;;7.90;99.90;;;;;;4945361;29;20022;-79
2022/01/04 06:10:40;;;;;;;2.55;1.38;;;7.90;99.90;;;;;;4946578;28;21247;-80
2022/01/04 06:15:31;;;;;;;;;;;7.90;99.90;;;;;;4945376;29;20027;-82
2022/01/04 06:17:58;;;;;;;1.00;0.63;;;7.90;99.90;;;;;;4944114;29;20462;-82
2022/01/04 06:20:24;;;;;;;1.23;1.00;;;7.90;99.90;;;;;;4944228;29;20023;-82
2022/01/04 06:22:50;;;;;;;;;;;7.90;99.90;;;;;;4943384;28;20130;-82
2022/01/04 06:25:18;;;;;;;1.60;0.90;;;7.90;99.90;;;;;;4943568;29;20359;-82
2022/01/04 06:27:45;;;;;;;2.95;1.35;;;7.80;99.90;;;;;;4944091;29;20070;-82
2022/01/04 06:30:13;;;;;;;3.17;1.13;;;7.90;99.90;;;;;;4943465;29;20476;-82
2022/01/04 06:32:42;;;;;;;2.45;1.50;;;7.80;99.90;;;;;;4945266;29;20107;-81
2022/01/04 06:35:08;;;;;;;4.15;1.52;;;7.80;99.90;;;;;;4946261;29;20038;-81
2022/01/04 06:37:34;;;;;;;;;;;7.80;99.90;;;;;;4945164;29;20020;-81
2022/01/04 06:39:59;;;;;;;3.40;1.17;;;7.80;99.90;;;;;;4944147;28;19950;-81
2022/01/04 06:42:25;;;;;;;;;;;7.80;99.90;;;;;;4945937;29;20070;-81
2022/01/04 06:44:50;;;;;;;6.03;1.30;;;7.80;99.90;;;;;;4944699;29;20471;-82
2022/01/04 06:47:16;;;;;;;;;;;7.90;99.90;;;;;;4945502;29;20020;-82
2022/01/04 06:49:41;;;;;;;4.78;1.08;;;7.90;99.90;;;;;;4945606;28;19943;-82
2022/01/04 06:52:08;;;;;;;;;;;7.90;99.90;;;;;;4945665;29;20097;-82
2022/01/04 06:54:34;;;;;;;2.83;1.30;;;7.90;99.90;;;;;;4944072;29;19917;-81
2022/01/04 06:57:00;;;;;;;3.92;1.33;;;7.90;99.90;;;;;;4944535;28;20024;-81
2022/01/04 06:59:25;;;;;;;;;;;7.90;99.90;;;;;;4945331;28;20468;-81
2022/01/04 07:01:51;;;;;;;1.88;1.52;;;7.90;99.90;;;;;;4944096;29;19911;-81
2022/01/04 07:04:16;;;;;;;2.05;1.27;;;7.90;99.90;;;;;;4945678;29;20031;-81
2022/01/04 07:06:42;;;;;;;;;;;7.90;99.90;;;;;;4944834;29;20031;-82
2022/01/04 07:09:08;;;;;;;2.80;1.55;;;7.90;99.90;;;;;;4944485;29;19974;-81
2022/01/04 07:11:33;;;;;;;;;;;7.90;99.90;;;;;;4945081;28;20700;-80
2022/01/04 07:14:00;;;;;;;5.13;2.05;;;8.00;99.90;;;;;;4944382;28;19915;-79
2022/01/04 07:16:25;;;;;;;;;;;8.00;99.90;;;;;;4944834;28;20423;-79
2022/01/04 07:18:51;;;;;;;7.55;1.65;;;8.00;99.90;;;;;;4944983;29;19913;-79
2022/01/04 07:21:18;;;;;;;5.00;2.00;;;8.00;99.90;;;;;;4945315;28;20019;-79
2022/01/04 07:23:44;;;;;;;5.13;2.47;;;8.00;99.90;;;;;;4944638;29;20035;-81
2022/01/04 07:26:17;;;;;;;3.05;1.67;;;8.10;99.90;;;;;;4945856;29;20035;-80
2022/01/04 07:28:44;;;;;;;3.17;1.52;;;8.10;99.90;;;;;;4943057;28;20020;-80
2022/01/04 07:31:10;;;;;;;2.85;1.85;;;8.10;99.90;;;;;;4944556;29;20019;-80
2022/01/04 07:33:36;;;;;;;;;;;8.10;99.90;;;;;;4945557;28;20467;-80
2022/01/04 07:36:02;;;;;;;2.75;1.45;;;8.10;99.90;;;;;;4944087;29;19917;-80
2022/01/04 07:38:27;;;;;;;3.00;1.95;;;8.10;99.90;;;;;;4943388;29;20485;-79
2022/01/04 07:40:53;;;;;;;;;;;8.00;99.90;;;;;;4945020;28;20123;-80
2022/01/04 07:43:19;;;;;;;6.95;1.77;;;8.10;99.90;;;;;;4942881;29;19916;-80
2022/01/04 07:45:44;;;;;;;3.78;2.13;;;8.10;99.90;;;;;;4943388;29;20027;-80
2022/01/04 07:48:12;;;;;;;;;;;8.10;99.90;;;;;;4944346;29;20035;-80
2022/01/04 07:50:42;;;;;;;1.70;1.25;;;8.10;99.90;;;;;;4944991;28;19910;-80
2022/01/04 07:53:08;;;;;;;3.65;1.98;;;8.20;99.90;;;;;;4944590;29;20038;-80
2022/01/04 07:55:33;;;;;;;;;;;8.10;99.90;;;;;;4942548;29;20483;-80
2022/01/04 07:57:59;;;;;;;2.72;1.88;;;8.10;99.90;;;;;;4943230;28;20282;-80
2022/01/04 08:00:26;;;;;;;2.00;1.30;;;8.10;99.90;;;;;;4943605;29;20031;-80
2022/01/04 08:02:52;;;;;;;2.75;1.67;;;8.20;99.90;;;;;;4942738;29;20067;-81
2022/01/04 08:05:18;;;;;;;3.22;1.50;;;8.20;99.90;;;;;;4942980;28;20059;-80
2022/01/04 08:07:44;;;;;;;;;;;8.20;99.90;;;;;;4944946;28;20053;-80
2022/01/04 08:10:10;;;;;;;8.93;1.90;;;8.20;99.90;;;;;;4943000;29;19977;-80
2022/01/04 08:12:36;;;;;;;8.52;2.17;;;8.20;99.90;;;;;;4944191;29;20509;-80
2022/01/04 08:15:05;;;;;;;;;;;8.20;99.90;;;;;;4944568;29;20027;-80
2022/01/04 08:17:31;;;;;;;2.00;1.35;;;8.20;99.90;;;;;;4945701;28;19957;-81
2022/01/04 08:19:57;;;;;;;;;;;8.20;99.90;;;;;;4944754;28;20059;-80
2022/01/04 08:22:22;;;;;;;1.95;1.75;;;8.20;99.90;;;;;;4944262;29;19953;-80
2022/01/04 08:24:48;;;;;;;;;;;8.20;99.90;;;;;;4943095;29;20062;-80
2022/01/04 08:27:13;;;;;;;4.15;2.35;;;8.30;99.90;;;;;;4943424;29;20394;-80
2022/01/04 08:29:39;;;;;;;;;;;8.30;99.90;;;;;;4942285;28;20030;-80
2022/01/04 08:32:05;;;;;;;5.95;1.95;;;8.30;99.90;;;;;;4943338;29;20025;-81
2022/01/04 08:34:30;;;;;;;;;;;8.30;99.90;;;;;;4943755;28;20492;-80
2022/01/04 08:36:56;;;;;;;5.30;2.28;;;8.30;99.90;;;;;;4943726;29;20450;-80
2022/01/04 08:39:26;;;;;;;;;;;8.30;99.90;;;;;;4944400;28;20042;-81
2022/01/04 08:41:54;;;;;;;2.95;1.77;;;8.30;99.90;;;;;;4943297;28;19906;-81
2022/01/04 08:44:23;;;;;;;2.70;2.10;;;8.30;99.90;;;;;;4943729;28;20030;-80
2022/01/04 08:46:50;;;;;;;4.43;2.53;;;8.30;99.90;;;;;;4942842;29;20027;-81
2022/01/04 08:49:16;;;;;;;2.90;2.05;;;8.30;99.90;;;;;;4941833;28;20027;-79
2022/01/04 08:51:41;;;;;;;;;;;8.40;99.90;;;;;;4943943;29;20366;-77
2022/01/04 08:54:07;;;;;;;3.00;1.92;;;8.40;99.90;;;;;;4942548;28;19993;-80
2022/01/04 08:56:33;;;;;;;;;;;8.40;99.90;;;;;;4940663;28;20027;-81
2022/01/04 08:58:58;;;;;;;2.60;2.10;;;8.30;99.90;;;;;;4941763;28;19918;-80
2022/01/04 09:01:24;;;;;;;;;;;8.40;99.90;;;;;;4942629;28;21810;-80
2022/01/04 09:03:50;;;;;;;11.90;2.33;;;8.40;99.90;;;;;;4940960;29;19910;-78
2022/01/04 09:06:16;;;;;;;2.60;2.40;;;8.40;99.90;;;;;;4941123;28;20519;-79
2022/01/04 09:08:44;;;;;;;;;;;8.40;99.90;;;;;;4941663;29;20038;-79
2022/01/04 09:11:10;;;;;;;5.28;2.80;;;8.40;99.90;;;;;;4969995;23;19973;-71
2022/01/04 09:13:41;;;;;;;;;;;8.40;99.90;;;;;;4956912;28;20019;-70
2022/01/04 09:18:49;;;;;;;;;;;8.40;99.90;;;;;;4958731;28;20089;-71
2022/01/04 09:21:23;;;;;;;4.85;2.95;;;8.40;99.90;;;;;;4975964;28;20378;-71
2022/01/04 09:23:50;;;;;;;3.05;1.88;;;8.50;99.90;;;;;;4978004;28;20038;-71
2022/01/04 09:26:17;;;;;;;4.88;3.38;;;8.50;99.90;;;;;;4980451;28;20018;-71
2022/01/04 09:28:44;;;;;;;2.60;2.00;;;8.50;99.90;;;;;;4981219;28;20056;-71
2022/01/04 09:31:12;;;;;;;6.07;2.70;;;8.50;99.90;;;;;;4978707;28;20053;-71
2022/01/04 09:33:38;;;;;;;4.00;2.28;;;8.40;99.90;;;;;;4980955;28;20055;-71
2022/01/04 09:36:04;;;;;;;;;;;8.50;99.90;;;;;;4979744;28;20057;-69
2022/01/04 09:38:30;;;;;;;4.15;2.97;;;8.40;99.90;;;;;;4980290;28;19914;-69
2022/01/04 09:40:55;;;;;;;;;;;8.50;99.90;;;;;;4981161;28;20037;-70
2022/01/04 09:43:22;;;;;;;5.03;2.38;;;8.40;99.90;;;;;;4979212;28;20359;-70
2022/01/04 09:45:48;;;;;;;6.35;2.75;;;8.50;99.90;;;;;;4979928;28;20050;-70
2022/01/04 09:48:14;;;;;;;3.85;2.60;;;8.50;99.90;;;;;;4978262;28;20030;-70
2022/01/04 09:50:41;;;;;;;;;;;8.50;99.90;;;;;;4982069;28;20019;-70
2022/01/04 09:53:09;;;;;;;6.63;3.45;;;8.50;99.90;;;;;;4980253;28;20398;-70
2022/01/04 09:55:42;;;;;;;11.00;7.07;;;8.50;99.90;;;;;;4981770;28;20170;-70
2022/01/04 09:58:07;;;;;;;8.40;4.65;;;8.50;99.90;;;;;;4979676;28;20046;-70
2022/01/04 10:00:33;;;;;;;;;;;8.50;99.90;;;;;;4980389;28;20030;-70
2022/01/04 10:03:28;;;;;;;6.07;4.18;;;8.50;99.90;;;;;;4978777;28;19910;-70
2022/01/04 10:06:14;;;;;;;6.18;4.25;;;8.60;99.90;;;;;;4978359;28;20108;-70
2022/01/04 10:09:04;;;;;;;8.32;5.20;;;8.60;99.90;;;;;;4976984;28;20022;-69
2022/01/04 10:11:42;;;;;;;7.32;4.78;;;8.50;99.90;;;;;;4977483;28;20037;-70
2022/01/04 10:14:24;;;;;;;6.70;3.53;;;8.60;99.90;;;;;;4978855;28;20031;-70
2022/01/04 10:16:51;;;;;;;9.30;3.63;;;8.60;99.90;;;;;;4981355;28;20092;-70
2022/01/04 10:19:40;;;;;;;5.35;3.75;;;8.60;99.90;;;;;;4980266;28;20030;-71
2022/01/04 10:22:20;;;;;;;8.48;5.00;;;8.60;99.90;;;;;;4978806;28;20030;-70
2022/01/04 10:25:08;;;;;;;7.30;4.03;;;8.60;99.90;;;;;;4979813;28;20030;-70
2022/01/04 10:27:36;;;;;;;7.03;4.30;;;8.70;99.90;;;;;;4980528;28;20022;-70
2022/01/04 10:30:28;;;;;;;4.70;3.15;;;8.70;99.90;;;;;;4980696;28;20030;-70
2022/01/04 10:32:58;;;;;;;5.38;3.35;;;8.70;99.90;;;;;;4975526;28;20566;-70
2022/01/04 10:35:31;;;;;;;5.57;3.67;;;8.70;99.90;;;;;;4979988;28;20522;-70
2022/01/04 10:38:08;;;;;;;6.47;3.60;;;8.80;99.90;;;;;;4979141;28;20077;-70
2022/01/04 10:40:34;;;;;;;5.38;3.90;;;8.80;99.90;;;;;;4979821;28;20432;-69
2022/01/04 10:43:05;;;;;;;;;;;8.80;99.90;;;;;;4976713;28;20172;-69
2022/01/04 10:45:33;;;;;;;6.47;3.53;;;8.80;99.90;;;;;;4966692;28;19925;-70
2022/01/04 10:48:11;;;;;;;5.05;3.10;;;8.90;99.90;;;;;;4977884;28;20027;-70
2022/01/04 10:50:37;;;;;;;4.40;3.90;;;8.90;99.90;;;;;;4979395;28;20026;-70
2022/01/04 10:53:05;;;;;;;6.15;3.33;;;8.90;99.90;;;;;;4976641;28;20396;-70
2022/01/04 10:55:32;;;;;;;8.75;3.60;;;8.90;99.90;;;;;;4979512;28;20023;-70
2022/01/04 10:57:59;;;;;;;7.00;4.03;;;8.90;99.90;;;;;;4979156;28;20114;-70
2022/01/04 11:00:25;;;;;;;8.75;3.92;;;9.00;99.90;;;;;;4975938;28;20035;-70
2022/01/04 11:02:51;;;;;;;4.95;3.55;;;9.00;99.90;;;;;;4978753;28;20042;-70
2022/01/04 11:05:17;;;;;;;;;;;9.00;99.90;;;;;;4978401;28;20030;-70
2022/01/04 11:08:07;;;;;;;10.93;5.25;;;9.00;99.90;;;;;;4978345;28;19909;-68
2022/01/04 11:10:35;;;;;;;5.65;3.45;;;9.00;99.90;;;;;;4977951;28;20038;-68
2022/01/04 11:13:02;;;;;;;6.85;4.88;;;9.10;99.90;;;;;;4978322;28;20026;-68
2022/01/04 11:15:29;;;;;;;8.98;4.25;;;9.10;99.90;;;;;;4973731;28;20038;-70
2022/01/04 11:17:56;;;;;;;7.15;4.30;;;9.10;99.90;;;;;;4972207;28;20459;-69
2022/01/04 11:20:22;;;;;;;7.97;4.07;;;9.10;99.90;;;;;;4974477;28;20105;-70
2022/01/04 11:22:48;;;;;;;;;;;9.10;99.90;;;;;;4976696;28;20487;-70
2022/01/04 11:25:16;;;;;;;9.02;4.25;;;9.10;99.90;;;;;;4978015;28;20094;-69
2022/01/04 11:27:42;;;;;;;8.15;3.53;;;9.10;99.90;;;;;;4971061;28;20026;-69
2022/01/04 11:30:31;;;;;;;6.35;4.10;;;9.10;99.90;;;;;;4973752;28;20030;-70
2022/01/04 11:33:04;;;;;;;7.80;3.28;;;9.10;99.90;;;;;;4977433;28;20111;-69
2022/01/04 11:35:31;;;;;;;5.45;3.53;;;9.00;99.90;;;;;;4979701;28;20026;-69
2022/01/04 11:37:58;;;;;;;6.63;4.13;;;9.10;99.90;;;;;;4977860;28;20121;-70
2022/01/04 11:40:41;;;;;;;7.03;4.40;;;9.00;99.90;;;;;;4977982;28;20786;-70
2022/01/04 11:43:25;;;;;;;6.97;4.78;;;9.00;99.90;;;;;;4976052;28;20086;-69
2022/01/04 11:45:51;;;;;;;5.63;3.55;;;9.00;99.90;;;;;;4977431;28;20118;-70
2022/01/04 11:48:26;;;;;;;6.80;3.95;;;9.00;99.90;;;;;;4974986;28;20019;-70
2022/01/04 11:50:54;;;;;;;5.32;3.83;;;9.00;99.90;;;;;;4975056;28;20022;-70
2022/01/04 11:53:20;;;;;;;7.35;3.75;;;9.00;99.90;;;;;;4976545;28;20034;-69
2022/01/04 11:55:53;;;;;;;;;;;9.00;99.90;;;;;;4978007;28;20053;-68
2022/01/04 11:58:24;;;;;;;9.82;4.07;;;9.00;99.90;;;;;;4974043;28;19913;-68
2022/01/04 12:01:01;;;;;;;10.77;4.35;;;9.00;99.90;;;;;;4976549;28;20043;-69
2022/01/04 12:03:44;;;;;;;6.93;3.92;;;9.00;99.90;;;;;;4977840;28;20679;-69
2022/01/04 12:06:11;;;;;;;7.47;4.75;;;9.00;99.90;;;;;;4976798;28;20038;-68
2022/01/04 12:08:53;;;;;;;7.85;5.35;;;9.00;99.90;;;;;;4977587;28;20026;-68
2022/01/04 12:11:25;;;;;;;8.05;4.20;;;9.00;99.90;;;;;;4975511;28;20046;-68
2022/01/04 12:13:59;;;;;;;8.65;5.00;;;9.10;99.90;;;;;;4975342;28;20161;-69
2022/01/04 12:17:00;;;;;;;9.40;4.00;;;9.10;99.90;;;;;;4977418;28;20051;-68
2022/01/04 12:19:46;;;;;;;6.47;5.28;;;9.10;99.90;;;;;;4973990;28;20038;-71
2022/01/04 12:22:11;;;;;;;8.48;5.55;;;9.20;99.90;;;;;;4975423;28;20392;-71
2022/01/04 12:24:45;;;;;;;;;;;9.20;99.90;;;;;;4975614;28;20034;-71
2022/01/04 12:27:12;;;;;;;12.07;4.93;;;9.20;99.90;;;;;;4975496;28;20346;-70
2022/01/04 12:29:38;;;;;;;12.65;5.88;;;9.20;99.90;;;;;;4976608;28;20030;-71
2022/01/04 12:32:07;;;;;;;;;;;9.20;99.90;;;;;;4977399;28;20053;-67
2022/01/04 12:34:48;;;;;;;7.25;4.75;;;9.30;99.90;;;;;;4976484;28;20020;-67
2022/01/04 12:37:18;;;;;;;12.35;6.07;;;10.10;99.90;;;;;;4975826;28;20537;-67
2022/01/04 12:39:45;;;;;;;8.10;4.85;;;10.80;99.90;;;;;;4976133;28;20117;-72
2022/01/04 12:42:15;;;;;;;11.07;5.00;;;11.10;99.90;;;;;;4975968;28;20145;-71
2022/01/04 12:44:41;;;;;;;9.70;6.82;;;10.80;99.90;;;;;;4975054;28;20102;-73
2022/01/04 12:47:08;;;;;;;12.50;6.05;;;10.40;99.90;;;;;;4973653;28;20035;-72
2022/01/04 12:49:35;;;;;;;13.48;5.40;;;10.00;99.90;;;;;;4975840;28;20030;-71
2022/01/04 12:52:07;;;;;;;13.98;6.45;;;9.80;99.90;;;;;;4976538;28;20035;-72
2022/01/04 12:54:38;;;;;;;8.32;4.88;;;9.60;99.90;;;;;;4976921;28;20072;-71
2022/01/04 12:57:04;;;;;;;9.52;6.40;;;9.40;99.90;;;;;;4975155;28;20093;-72
2022/01/04 12:59:30;;;;;;;;;;;9.30;99.90;;;;;;4972677;28;20038;-72
2022/01/04 13:02:08;;;;;;;13.33;6.80;;;9.30;99.90;;;;;;4974175;28;19910;-73
2022/01/04 13:04:36;;;;;;;10.32;5.55;;;9.30;99.90;;;;;;4974130;28;20332;-74
2022/01/04 13:07:05;;;;;;;11.18;5.78;;;9.20;99.90;;;;;;4976487;28;20127;-74
2022/01/04 13:09:31;;;;;;;11.90;6.55;;;9.20;99.90;;;;;;4973963;28;20054;-73
2022/01/04 13:11:57;;;;;;;;;;;9.20;99.90;;;;;;4974128;28;20042;-73
2022/01/04 13:14:25;;;;;;;13.93;6.70;;;9.20;99.90;;;;;;4975184;28;19937;-75
2022/01/04 13:17:09;;;;;;;9.98;6.43;;;9.20;99.90;;;;;;4975015;28;20100;-75
2022/01/04 13:19:38;;;;;;;9.55;6.20;;;9.10;99.90;;;;;;4975092;28;20030;-75
2022/01/04 13:22:13;;;;;;;12.07;7.07;;;9.10;99.90;;;;;;4976177;28;20056;-76
2022/01/04 13:24:43;;;;;;;12.03;7.37;;;9.10;99.90;;;;;;4976527;28;20364;-75
2022/01/04 13:27:33;;;;;;;20.35;6.53;;;9.20;99.90;;;;;;4974080;28;20076;-75
2022/01/04 13:30:11;;;;;;;12.75;5.80;;;9.20;99.90;;;;;;4975198;28;20400;-75